Decoded Metar for KD95 ( in ) (IATA:) | Meteo·Mobile Aviation Weather
aviador You're here:

KD95 Decoded Metar

in
Report Time2019-07-23 06:57:00
UTC Time2019-07-23 07:20:05
Flight Rules vfr VFR
WindCalm
Visibility9999 m
Phenomena:N/A
Clouds:N/A
Expected CloudBase > 400 ft AGL from Temp-Dew spread
CeilingNone
Temp12°C
Dew Point11°C (94% RH)
QNH1017 hPa
Raw Report
KD95 230657Z AUTO 00000KT 10SM CLR 12/11 A3002 RMK AO2
T01160109=

Extra information for KD95:More info

Social comments